Time;durP1;ratioP1;P1;durP2;ratioP2;P2;SDS_P1;SDS_P2;PMS_P1;PMS_P2;Temp;Humidity;BMP_temperature;BMP_pressure;BME280_temperature;BME280_humidity;BME280_pressure;Samples;Min_cycle;Max_cycle;Signal;HPM_P1;HPM_P2
2020/12/29 00:00:01;;;;;;;15.60;14.10;;;;;;;;;;5095517;28;20706;-86
2020/12/29 00:02:27;;;;;;;15.40;13.80;;;;;;;;;;5094195;28;20210;-86
2020/12/29 00:04:56;;;;;;;15.23;13.63;;;;;;;;;;5095333;28;20228;-86
2020/12/29 00:07:22;;;;;;;17.23;14.60;;;;;;;;;;5095562;28;20540;-86
2020/12/29 00:09:48;;;;;;;16.73;14.67;;;;;;;;;;5094025;28;20647;-86
2020/12/29 00:12:15;;;;;;;16.20;14.67;;;;;;;;;;5095182;28;20213;-86
2020/12/29 00:14:41;;;;;;;15.43;14.00;;;;;;;;;;5095492;28;20176;-86
2020/12/29 00:17:07;;;;;;;16.10;14.40;;;;;;;;;;5094031;28;20227;-86
2020/12/29 00:19:35;;;;;;;16.83;15.03;;;;;;;;;;5095134;28;20268;-86
2020/12/29 00:22:04;;;;;;;14.83;13.33;;;;;;;;;;5095130;28;20198;-87
2020/12/29 00:24:30;;;;;;;15.30;13.90;;;;;;;;;;5093731;28;20288;-87
2020/12/29 00:26:58;;;;;;;15.63;14.03;;;;;;;;;;5094921;28;20182;-87
2020/12/29 00:29:30;;;;;;;15.43;13.73;;;;;;;;;;5093662;28;20177;-87
2020/12/29 00:32:01;;;;;;;16.90;14.43;;;;;;;;;;5093595;28;20700;-87
2020/12/29 00:34:32;;;;;;;13.67;12.33;;;;;;;;;;5093485;28;20183;-86
2020/12/29 00:37:01;;;;;;;14.10;12.73;;;;;;;;;;5094862;28;20587;-86
2020/12/29 00:39:30;;;;;;;14.23;12.83;;;;;;;;;;5093386;28;20252;-86
2020/12/29 00:42:00;;;;;;;14.40;13.07;;;;;;;;;;5093324;28;20199;-86
2020/12/29 00:44:34;;;;;;;14.20;12.80;;;;;;;;;;5094528;28;20192;-86
2020/12/29 00:47:06;;;;;;;14.60;13.20;;;;;;;;;;5094585;28;20659;-86
2020/12/29 00:49:37;;;;;;;16.53;12.97;;;;;;;;;;5094818;28;20160;-86
2020/12/29 00:52:03;;;;;;;13.60;12.30;;;;;;;;;;5094441;28;20208;-86
2020/12/29 00:54:35;;;;;;;14.23;12.83;;;;;;;;;;5093232;28;20206;-86
2020/12/29 00:57:05;;;;;;;14.07;12.73;;;;;;;;;;5093170;28;20184;-87
2020/12/29 00:59:31;;;;;;;14.83;13.23;;;;;;;;;;5094302;28;20186;-86
2020/12/29 01:02:04;;;;;;;14.90;13.37;;;;;;;;;;5092913;28;20201;-86
2020/12/29 01:04:35;;;;;;;14.07;12.77;;;;;;;;;;5094552;28;20180;-87
2020/12/29 01:07:09;;;;;;;14.33;12.93;;;;;;;;;;5094196;28;20675;-87
2020/12/29 01:09:41;;;;;;;15.33;12.77;;;;;;;;;;5092095;28;20177;-86
2020/12/29 01:12:10;;;;;;;14.83;13.43;;;;;;;;;;5094088;28;20230;-87
2020/12/29 01:14:45;;;;;;;13.47;12.17;;;;;;;;;;5094105;28;20203;-86
2020/12/29 01:17:17;;;;;;;19.17;14.33;;;;;;;;;;5092752;28;20185;-87
2020/12/29 01:19:49;;;;;;;15.60;14.03;;;;;;;;;;5094229;28;20258;-86
2020/12/29 01:22:19;;;;;;;15.57;14.03;;;;;;;;;;5092554;28;20198;-86
2020/12/29 01:24:57;;;;;;;14.03;12.63;;;;;;;;;;5092604;28;20205;-87
2020/12/29 01:27:29;;;;;;;14.13;12.73;;;;;;;;;;5094128;28;20197;-87
2020/12/29 01:29:58;;;;;;;15.10;13.60;;;;;;;;;;5094071;28;20174;-87
2020/12/29 01:32:25;;;;;;;15.47;13.87;;;;;;;;;;5092481;28;20570;-87
2020/12/29 01:34:58;;;;;;;16.00;13.83;;;;;;;;;;5092503;28;20261;-86
2020/12/29 01:37:24;;;;;;;14.77;13.30;;;;;;;;;;5092411;28;20178;-86
2020/12/29 01:39:51;;;;;;;14.47;13.00;;;;;;;;;;5092395;28;20195;-86
2020/12/29 01:42:23;;;;;;;14.53;13.23;;;;;;;;;;5092336;28;20253;-87
2020/12/29 01:44:54;;;;;;;14.83;13.30;;;;;;;;;;5092217;28;20294;-87
2020/12/29 01:47:29;;;;;;;14.17;12.77;;;;;;;;;;5092323;28;20180;-87
2020/12/29 01:50:01;;;;;;;14.83;13.30;;;;;;;;;;5092264;28;20180;-87
2020/12/29 01:52:31;;;;;;;12.63;11.33;;;;;;;;;;5092162;28;20236;-86
2020/12/29 01:55:01;;;;;;;12.87;11.67;;;;;;;;;;5092711;28;20283;-86
2020/12/29 01:57:27;;;;;;;13.80;12.43;;;;;;;;;;5092049;28;20675;-87
2020/12/29 01:59:57;;;;;;;14.10;12.60;;;;;;;;;;5092133;28;20194;-87
2020/12/29 02:02:25;;;;;;;14.07;12.60;;;;;;;;;;5091960;28;20205;-87
2020/12/29 02:04:56;;;;;;;13.43;12.03;;;;;;;;;;5091961;28;20205;-87
2020/12/29 02:07:26;;;;;;;13.30;12.00;;;;;;;;;;5091949;28;20179;-86
2020/12/29 02:09:59;;;;;;;13.30;12.10;;;;;;;;;;5091932;28;20174;-86
2020/12/29 02:12:31;;;;;;;14.13;12.73;;;;;;;;;;5093057;28;20284;-86
2020/12/29 02:15:04;;;;;;;14.80;13.30;;;;;;;;;;5093241;28;20642;-87
2020/12/29 02:17:38;;;;;;;14.83;13.37;;;;;;;;;;5093465;28;20171;-87
2020/12/29 02:20:06;;;;;;;14.20;12.80;;;;;;;;;;5093702;28;20185;-87
2020/12/29 02:22:32;;;;;;;13.17;11.90;;;;;;;;;;5097573;28;20202;-87
2020/12/29 02:25:01;;;;;;;12.63;11.33;;;;;;;;;;5096024;28;20209;-87
2020/12/29 02:27:35;;;;;;;13.87;12.50;;;;;;;;;;5095931;28;20296;-87
2020/12/29 02:30:06;;;;;;;14.00;12.27;;;;;;;;;;5097209;28;20257;-86
2020/12/29 02:32:38;;;;;;;13.37;12.07;;;;;;;;;;5097476;28;20179;-86
2020/12/29 02:35:10;;;;;;;14.63;13.20;;;;;;;;;;5095883;28;20650;-87
2020/12/29 02:37:38;;;;;;;15.97;13.70;;;;;;;;;;5095790;28;20228;-86
2020/12/29 02:40:05;;;;;;;14.70;13.20;;;;;;;;;;5095769;28;20185;-86
2020/12/29 02:42:38;;;;;;;15.83;13.57;;;;;;;;;;5095676;28;20198;-86
2020/12/29 02:45:08;;;;;;;15.83;14.13;;;;;;;;;;5097253;28;20202;-86
2020/12/29 02:47:38;;;;;;;16.30;13.43;;;;;;;;;;5097196;28;20174;-87
2020/12/29 02:50:09;;;;;;;14.50;13.00;;;;;;;;;;5095786;28;20198;-87
2020/12/29 02:52:35;;;;;;;13.57;12.17;;;;;;;;;;5096823;28;20569;-87
2020/12/29 02:55:07;;;;;;;15.40;12.90;;;;;;;;;;5095496;28;20186;-86
2020/12/29 02:57:37;;;;;;;14.63;13.00;;;;;;;;;;5095461;28;20179;-86
2020/12/29 03:00:06;;;;;;;14.43;12.93;;;;;;;;;;5097005;28;20649;-86
2020/12/29 03:02:32;;;;;;;14.87;13.27;;;;;;;;;;5095538;28;20565;-86
2020/12/29 03:05:02;;;;;;;14.50;12.93;;;;;;;;;;5095234;28;20705;-86
2020/12/29 03:07:37;;;;;;;15.10;13.43;;;;;;;;;;5096441;28;20176;-87
2020/12/29 03:10:12;;;;;;;13.80;12.40;;;;;;;;;;5095172;28;20178;-86
2020/12/29 03:12:44;;;;;;;14.40;12.90;;;;;;;;;;5095259;28;20185;-87
2020/12/29 03:15:12;;;;;;;14.87;13.33;;;;;;;;;;5095034;28;20181;-87
2020/12/29 03:17:43;;;;;;;14.93;13.53;;;;;;;;;;5096406;28;20184;-87
2020/12/29 03:20:10;;;;;;;14.13;12.63;;;;;;;;;;5094933;28;20183;-87
2020/12/29 03:22:39;;;;;;;16.87;14.00;;;;;;;;;;5096193;28;20176;-87
2020/12/29 03:25:11;;;;;;;14.47;13.07;;;;;;;;;;5094884;28;20557;-86
2020/12/29 03:27:40;;;;;;;14.83;13.17;;;;;;;;;;5094862;28;20175;-86
2020/12/29 03:30:06;;;;;;;16.67;14.13;;;;;;;;;;5096056;28;20178;-86
2020/12/29 03:32:32;;;;;;;16.37;14.30;;;;;;;;;;5095141;28;20672;-86
2020/12/29 03:35:01;;;;;;;15.83;13.87;;;;;;;;;;5094767;28;20186;-86
2020/12/29 03:37:36;;;;;;;15.33;13.70;;;;;;;;;;5095953;28;20179;-87
2020/12/29 03:40:07;;;;;;;15.33;13.63;;;;;;;;;;5094665;28;20206;-87
2020/12/29 03:42:39;;;;;;;16.67;14.87;;;;;;;;;;5094586;28;20533;-87
2020/12/29 03:45:10;;;;;;;15.47;13.80;;;;;;;;;;5095766;28;20234;-86
2020/12/29 03:47:45;;;;;;;14.77;13.17;;;;;;;;;;5094442;28;20182;-86
2020/12/29 03:50:17;;;;;;;16.07;14.47;;;;;;;;;;5094409;28;20178;-86
2020/12/29 03:52:46;;;;;;;14.97;13.47;;;;;;;;;;5094813;28;20265;-87
2020/12/29 03:55:21;;;;;;;16.43;14.70;;;;;;;;;;5094360;28;20257;-87
2020/12/29 03:57:50;;;;;;;16.63;14.20;;;;;;;;;;5094767;28;20595;-87
2020/12/29 04:00:21;;;;;;;15.70;14.10;;;;;;;;;;5094233;28;20179;-86
2020/12/29 04:02:52;;;;;;;15.37;13.77;;;;;;;;;;5094249;28;20179;-86
2020/12/29 04:05:22;;;;;;;15.70;13.07;;;;;;;;;;5094182;28;20191;-86
2020/12/29 04:07:55;;;;;;;14.87;13.37;;;;;;;;;;5094161;28;20178;-87
2020/12/29 04:10:29;;;;;;;17.13;14.60;;;;;;;;;;5093834;28;20183;-87
2020/12/29 04:13:03;;;;;;;15.10;13.50;;;;;;;;;;5093926;28;20182;-87
2020/12/29 04:15:29;;;;;;;14.47;13.00;;;;;;;;;;5095213;28;20673;-87
2020/12/29 04:18:01;;;;;;;18.87;15.50;;;;;;;;;;5093929;28;20647;-87
2020/12/29 04:20:31;;;;;;;15.03;13.43;;;;;;;;;;5093738;28;20707;-87
2020/12/29 04:23:01;;;;;;;16.23;14.60;;;;;;;;;;5095082;28;20643;-87
2020/12/29 04:25:30;;;;;;;17.80;14.30;;;;;;;;;;5094952;28;20190;-87
2020/12/29 04:28:06;;;;;;;15.20;13.70;;;;;;;;;;5093677;28;20248;-87
2020/12/29 04:30:38;;;;;;;16.50;14.70;;;;;;;;;;5094447;28;20652;-87
2020/12/29 04:33:09;;;;;;;17.47;15.13;;;;;;;;;;5093584;28;20199;-86
2020/12/29 04:35:41;;;;;;;16.57;14.83;;;;;;;;;;5093559;28;20183;-86
2020/12/29 04:38:14;;;;;;;16.93;14.87;;;;;;;;;;5093599;28;20262;-86
2020/12/29 04:40:44;;;;;;;17.03;15.23;;;;;;;;;;5093766;28;20278;-86
2020/12/29 04:43:19;;;;;;;17.30;15.30;;;;;;;;;;5093965;28;20201;-86
2020/12/29 04:45:47;;;;;;;19.43;15.67;;;;;;;;;;5093709;28;20198;-86
2020/12/29 04:48:17;;;;;;;18.73;16.47;;;;;;;;;;5093285;28;20194;-86
2020/12/29 04:50:46;;;;;;;17.43;15.37;;;;;;;;;;5094475;28;20261;-86
2020/12/29 04:53:14;;;;;;;16.50;14.77;;;;;;;;;;5093223;28;20174;-86
2020/12/29 04:55:46;;;;;;;19.00;15.23;;;;;;;;;;5094375;28;20228;-86
2020/12/29 04:58:17;;;;;;;17.13;14.70;;;;;;;;;;5093405;28;20178;-86
2020/12/29 05:00:50;;;;;;;16.43;14.30;;;;;;;;;;5093072;28;20243;-86
2020/12/29 05:03:19;;;;;;;16.77;15.07;;;;;;;;;;5093854;28;20178;-86
2020/12/29 05:05:52;;;;;;;16.50;14.80;;;;;;;;;;5092844;28;20207;-86
2020/12/29 05:08:24;;;;;;;15.50;13.90;;;;;;;;;;5093014;28;20233;-86
2020/12/29 05:10:59;;;;;;;16.07;14.37;;;;;;;;;;5092701;28;20211;-86
2020/12/29 05:13:30;;;;;;;17.30;14.77;;;;;;;;;;5092816;28;20179;-86
2020/12/29 05:15:59;;;;;;;16.13;14.10;;;;;;;;;;5094041;28;20228;-87
2020/12/29 05:18:31;;;;;;;16.73;14.90;;;;;;;;;;5092763;28;20179;-87
2020/12/29 05:21:01;;;;;;;16.87;15.00;;;;;;;;;;5094131;28;20192;-87
2020/12/29 05:23:35;;;;;;;17.77;13.87;;;;;;;;;;5094043;28;20268;-87
2020/12/29 05:26:08;;;;;;;17.33;15.50;;;;;;;;;;5094128;28;20177;-87
2020/12/29 05:28:34;;;;;;;16.50;14.80;;;;;;;;;;5093947;28;20180;-86
2020/12/29 05:31:01;;;;;;;16.33;14.23;;;;;;;;;;5093774;28;20213;-87
2020/12/29 05:33:31;;;;;;;16.30;13.87;;;;;;;;;;5092473;28;20180;-87
2020/12/29 05:36:01;;;;;;;17.80;15.90;;;;;;;;;;5092496;28;20173;-86
2020/12/29 05:38:34;;;;;;;17.03;15.33;;;;;;;;;;5093969;28;20171;-87
2020/12/29 05:41:07;;;;;;;17.73;15.07;;;;;;;;;;5092676;28;20696;-87
2020/12/29 05:43:38;;;;;;;17.23;15.30;;;;;;;;;;5093662;28;20175;-87
2020/12/29 05:46:07;;;;;;;20.20;15.17;;;;;;;;;;5093616;28;20560;-86
2020/12/29 05:48:40;;;;;;;16.93;14.67;;;;;;;;;;5092242;28;20206;-87
2020/12/29 05:51:22;;;;;;;18.57;15.37;;;;;;;;;;5093397;28;20191;-87
2020/12/29 05:53:49;;;;;;;16.90;14.73;;;;;;;;;;5093875;28;20155;-87
2020/12/29 05:56:25;;;;;;;17.83;15.93;;;;;;;;;;5093122;28;20180;-87
2020/12/29 05:58:59;;;;;;;16.40;14.33;;;;;;;;;;5093377;28;20174;-86
2020/12/29 06:01:41;;;;;;;18.43;16.43;;;;;;;;;;5092038;28;20706;-86
2020/12/29 06:04:14;;;;;;;15.07;13.47;;;;;;;;;;5092001;28;20195;-86
2020/12/29 06:06:56;;;;;;;17.50;14.43;;;;;;;;;;5091697;28;20190;-86
2020/12/29 06:09:22;;;;;;;16.57;14.67;;;;;;;;;;5092072;28;20551;-86
2020/12/29 06:11:52;;;;;;;16.93;15.23;;;;;;;;;;5091863;28;20225;-86
2020/12/29 06:14:24;;;;;;;18.07;15.60;;;;;;;;;;5091931;28;20702;-86
2020/12/29 06:16:50;;;;;;;15.83;14.13;;;;;;;;;;5093476;28;20190;-86
2020/12/29 06:19:29;;;;;;;19.97;16.17;;;;;;;;;;5093167;28;20176;-86
2020/12/29 06:22:04;;;;;;;19.33;15.27;;;;;;;;;;5091848;28;20702;-87
2020/12/29 06:24:35;;;;;;;18.30;15.97;;;;;;;;;;5092555;28;20209;-87
2020/12/29 06:27:03;;;;;;;19.10;15.50;;;;;;;;;;5093370;28;20546;-87
2020/12/29 06:29:36;;;;;;;18.43;15.60;;;;;;;;;;5093061;28;20231;-86
2020/12/29 06:32:25;;;;;;;19.13;16.97;;;;;;;;;;5091869;28;20193;-86
2020/12/29 06:34:55;;;;;;;18.90;16.97;;;;;;;;;;5091801;28;20186;-87
2020/12/29 06:37:26;;;;;;;17.87;15.37;;;;;;;;;;5091754;28;20186;-86
2020/12/29 06:40:03;;;;;;;18.87;16.43;;;;;;;;;;5092929;28;20186;-86
2020/12/29 06:42:32;;;;;;;19.00;17.03;;;;;;;;;;5093234;28;20212;-87
2020/12/29 06:45:09;;;;;;;21.63;16.83;;;;;;;;;;5091719;28;20688;-87
2020/12/29 06:47:45;;;;;;;19.37;15.43;;;;;;;;;;5092533;28;20195;-86
2020/12/29 06:50:37;;;;;;;19.60;17.37;;;;;;;;;;5091518;28;20638;-87
2020/12/29 06:53:05;;;;;;;24.27;16.57;;;;;;;;;;5086502;28;20264;-87
2020/12/29 06:55:44;;;;;;;20.60;15.50;;;;;;;;;;5091659;28;20279;-87
2020/12/29 06:58:11;;;;;;;20.00;17.10;;;;;;;;;;5092760;28;20175;-87
2020/12/29 07:00:42;;;;;;;18.37;16.47;;;;;;;;;;5092785;28;20204;-87
2020/12/29 07:03:09;;;;;;;19.80;16.47;;;;;;;;;;5091645;28;20169;-87
2020/12/29 07:05:39;;;;;;;21.10;16.53;;;;;;;;;;5093019;28;20199;-87
2020/12/29 07:08:06;;;;;;;20.33;16.67;;;;;;;;;;5093979;28;20174;-87
2020/12/29 07:13:21;;;;;;;19.60;17.20;;;;;;;;;;5198082;22;20258;-89
2020/12/29 07:15:53;;;;;;;20.20;17.70;;;;;;;;;;5115647;28;20307;-90
2020/12/29 07:18:26;;;;;;;19.50;16.47;;;;;;;;;;5116533;28;20167;-89
2020/12/29 07:20:58;;;;;;;21.70;17.30;;;;;;;;;;5116767;28;20175;-89
2020/12/29 07:23:37;;;;;;;20.83;16.57;;;;;;;;;;5117130;28;20249;-89
2020/12/29 07:26:14;;;;;;;19.03;15.87;;;;;;;;;;5117052;28;20210;-89
2020/12/29 07:28:44;;;;;;;19.60;16.63;;;;;;;;;;5115480;28;20175;-89
2020/12/29 07:31:16;;;;;;;18.07;16.00;;;;;;;;;;5116836;28;20198;-89
2020/12/29 07:33:53;;;;;;;21.00;16.33;;;;;;;;;;5116918;28;20150;-89
2020/12/29 07:36:31;;;;;;;17.63;15.67;;;;;;;;;;5115352;28;20178;-89
2020/12/29 07:39:01;;;;;;;17.67;15.87;;;;;;;;;;5116787;27;20174;-89
2020/12/29 07:41:35;;;;;;;21.07;15.43;;;;;;;;;;5116463;28;20571;-89
2020/12/29 07:44:07;;;;;;;19.67;17.30;;;;;;;;;;5115408;28;20198;-89
2020/12/29 07:46:39;;;;;;;18.93;17.00;;;;;;;;;;5116411;28;20162;-89
2020/12/29 07:49:08;;;;;;;19.10;16.93;;;;;;;;;;5115053;28;20176;-89
2020/12/29 07:51:53;;;;;;;18.03;15.97;;;;;;;;;;5114898;28;20190;-90
2020/12/29 07:54:20;;;;;;;20.10;17.33;;;;;;;;;;5115662;28;20172;-89
2020/12/29 07:56:51;;;;;;;19.73;17.27;;;;;;;;;;5116447;28;20766;-90
2020/12/29 07:59:21;;;;;;;19.07;17.07;;;;;;;;;;5116135;27;20171;-90
2020/12/29 08:01:54;;;;;;;24.00;16.93;;;;;;;;;;5114758;28;20288;-89
2020/12/29 08:04:35;;;;;;;20.03;17.70;;;;;;;;;;5114662;28;20199;-90
2020/12/29 08:07:11;;;;;;;18.57;16.47;;;;;;;;;;5116418;28;20182;-90
2020/12/29 08:09:50;;;;;;;22.27;17.60;;;;;;;;;;5114641;28;20205;-90
2020/12/29 08:12:23;;;;;;;18.43;16.47;;;;;;;;;;5115842;28;20201;-89
2020/12/29 08:14:54;;;;;;;18.27;15.97;;;;;;;;;;5114523;28;20327;-90
2020/12/29 08:17:25;;;;;;;18.67;16.63;;;;;;;;;;5114680;28;20542;-89
2020/12/29 08:20:01;;;;;;;17.93;16.03;;;;;;;;;;5114653;28;20315;-89
2020/12/29 08:22:32;;;;;;;19.33;16.97;;;;;;;;;;5114646;28;20687;-90
2020/12/29 08:24:58;;;;;;;18.10;15.97;;;;;;;;;;5114135;28;20203;-90
2020/12/29 08:27:30;;;;;;;18.60;16.67;;;;;;;;;;5114309;28;20178;-90
2020/12/29 08:30:02;;;;;;;19.23;17.23;;;;;;;;;;5115431;28;20179;-90
2020/12/29 08:32:34;;;;;;;17.40;15.60;;;;;;;;;;5115348;28;20532;-90
2020/12/29 08:35:07;;;;;;;22.00;17.47;;;;;;;;;;5115778;28;20540;-90
2020/12/29 08:37:45;;;;;;;20.87;17.63;;;;;;;;;;5114387;28;20175;-90
2020/12/29 08:40:26;;;;;;;29.13;19.87;;;;;;;;;;5114440;28;20172;-90
2020/12/29 08:42:58;;;;;;;26.17;20.53;;;;;;;;;;5114307;28;20189;-90
2020/12/29 08:45:28;;;;;;;23.13;18.70;;;;;;;;;;5115540;28;20190;-90
2020/12/29 08:48:00;;;;;;;28.87;20.93;;;;;;;;;;5113885;28;20651;-90
2020/12/29 08:50:31;;;;;;;28.03;20.17;;;;;;;;;;5113812;28;20728;-90
2020/12/29 08:53:07;;;;;;;29.03;20.97;;;;;;;;;;5115297;28;20220;-90
2020/12/29 08:55:40;;;;;;;27.60;21.57;;;;;;;;;;5113981;28;20179;-89
2020/12/29 08:58:17;;;;;;;32.07;21.43;;;;;;;;;;5115220;28;20177;-90
2020/12/29 09:00:45;;;;;;;33.17;23.77;;;;;;;;;;5114810;28;20193;-89
2020/12/29 09:03:29;;;;;;;36.80;24.53;;;;;;;;;;5115111;28;20638;-89
2020/12/29 09:06:00;;;;;;;37.30;22.03;;;;;;;;;;5113444;28;20677;-89
2020/12/29 09:08:32;;;;;;;36.40;24.67;;;;;;;;;;5113418;28;20173;-89
2020/12/29 09:11:11;;;;;;;32.13;22.27;;;;;;;;;;5113160;28;20190;-89
2020/12/29 09:13:59;;;;;;;34.90;22.83;;;;;;;;;;5114712;28;20601;-89
2020/12/29 09:16:31;;;;;;;38.33;25.07;;;;;;;;;;5113675;28;20203;-90
2020/12/29 09:19:13;;;;;;;33.77;23.60;;;;;;;;;;5113632;28;20714;-89
2020/12/29 09:21:51;;;;;;;34.97;23.97;;;;;;;;;;5113184;28;20188;-89
2020/12/29 09:24:24;;;;;;;37.57;22.63;;;;;;;;;;5113142;28;20199;-89
2020/12/29 09:26:59;;;;;;;31.43;23.50;;;;;;;;;;5114751;28;20168;-90
2020/12/29 09:29:29;;;;;;;32.03;22.00;;;;;;;;;;5112643;28;20169;-89
2020/12/29 09:32:00;;;;;;;32.80;23.23;;;;;;;;;;5113003;28;20216;-89
2020/12/29 09:34:27;;;;;;;32.73;23.27;;;;;;;;;;5113055;28;20610;-90
2020/12/29 09:36:54;;;;;;;32.00;23.03;;;;;;;;;;5113202;28;20274;-89
2020/12/29 09:39:20;;;;;;;33.87;25.23;;;;;;;;;;5113197;28;20180;-90
2020/12/29 09:41:55;;;;;;;34.93;23.57;;;;;;;;;;5112834;28;20197;-90
2020/12/29 09:44:21;;;;;;;36.67;24.50;;;;;;;;;;5112785;28;20664;-89
2020/12/29 09:46:52;;;;;;;35.63;23.90;;;;;;;;;;5112875;28;20176;-89
2020/12/29 09:49:26;;;;;;;35.17;25.97;;;;;;;;;;5112712;28;20245;-89
2020/12/29 09:51:55;;;;;;;42.67;28.67;;;;;;;;;;5114099;28;20188;-90
2020/12/29 09:54:26;;;;;;;38.47;26.53;;;;;;;;;;5113912;28;20175;-90
2020/12/29 09:56:56;;;;;;;40.53;25.57;;;;;;;;;;5114221;28;20186;-90
2020/12/29 09:59:24;;;;;;;44.97;27.33;;;;;;;;;;5112967;28;20175;-90
2020/12/29 10:01:52;;;;;;;42.23;27.93;;;;;;;;;;5113965;28;20238;-90
2020/12/29 10:04:19;;;;;;;43.23;28.30;;;;;;;;;;5112652;28;20200;-90
2020/12/29 10:06:54;;;;;;;39.77;25.73;;;;;;;;;;5112631;28;20169;-90
2020/12/29 10:09:27;;;;;;;47.83;30.00;;;;;;;;;;5112590;28;20170;-90
2020/12/29 10:11:54;;;;;;;42.93;28.73;;;;;;;;;;5113612;28;20231;-90
2020/12/29 10:14:27;;;;;;;47.30;30.73;;;;;;;;;;5112463;28;20226;-90
2020/12/29 10:16:53;;;;;;;42.97;27.77;;;;;;;;;;5113954;28;20170;-90
2020/12/29 10:19:22;;;;;;;41.97;28.87;;;;;;;;;;5112425;28;20179;-90
2020/12/29 10:21:55;;;;;;;43.77;30.63;;;;;;;;;;5113489;28;20218;-90
2020/12/29 10:24:26;;;;;;;45.47;31.00;;;;;;;;;;5113498;28;20207;-90
2020/12/29 10:27:01;;;;;;;41.90;29.43;;;;;;;;;;5113153;28;20627;-90
2020/12/29 10:29:32;;;;;;;32.93;25.27;;;;;;;;;;5113644;28;20671;-90
2020/12/29 10:32:05;;;;;;;33.27;23.63;;;;;;;;;;5113792;28;20615;-90
2020/12/29 10:34:35;;;;;;;40.00;29.20;;;;;;;;;;5113871;28;20166;-90
2020/12/29 10:37:05;;;;;;;39.23;28.90;;;;;;;;;;5112506;28;20642;-90
2020/12/29 10:39:37;;;;;;;42.70;29.73;;;;;;;;;;5112335;28;20180;-90
2020/12/29 10:42:11;;;;;;;22.20;18.70;;;;;;;;;;5114796;28;20287;-90
2020/12/29 10:44:41;;;;;;;36.13;28.20;;;;;;;;;;5116493;28;20201;-89
2020/12/29 10:47:15;;;;;;;33.07;25.57;;;;;;;;;;5117925;28;20167;-89
2020/12/29 10:49:45;;;;;;;33.73;26.93;;;;;;;;;;5116201;28;20171;-89
2020/12/29 10:52:13;;;;;;;39.10;28.17;;;;;;;;;;5116283;28;20215;-89
2020/12/29 10:54:44;;;;;;;32.13;25.70;;;;;;;;;;5116298;28;20174;-89
2020/12/29 10:57:14;;;;;;;41.20;30.80;;;;;;;;;;5117459;28;20217;-89
2020/12/29 10:59:44;;;;;;;29.83;23.73;;;;;;;;;;5117329;28;20176;-89
2020/12/29 11:02:15;;;;;;;28.13;21.67;;;;;;;;;;5116017;28;20301;-89
2020/12/29 11:04:41;;;;;;;29.63;24.13;;;;;;;;;;5117036;28;20202;-90
2020/12/29 11:07:15;;;;;;;29.97;22.70;;;;;;;;;;5116198;28;20179;-89
2020/12/29 11:09:50;;;;;;;31.77;24.17;;;;;;;;;;5117082;28;20658;-89
2020/12/29 11:12:21;;;;;;;41.77;30.73;;;;;;;;;;5117443;28;20198;-89
2020/12/29 11:14:51;;;;;;;35.17;27.80;;;;;;;;;;5116947;28;20219;-89
2020/12/29 11:17:24;;;;;;;39.63;27.23;;;;;;;;;;5115903;28;20235;-90
2020/12/29 11:19:50;;;;;;;31.23;22.37;;;;;;;;;;5116807;28;20641;-92
2020/12/29 11:22:20;;;;;;;36.23;26.47;;;;;;;;;;5115550;28;20199;-92
2020/12/29 11:24:55;;;;;;;38.27;25.67;;;;;;;;;;5116695;28;20193;-92
2020/12/29 11:27:28;;;;;;;33.53;24.33;;;;;;;;;;5115592;28;20259;-92
2020/12/29 11:29:55;;;;;;;33.27;25.60;;;;;;;;;;5115670;28;20251;-91
2020/12/29 11:32:21;;;;;;;41.37;29.30;;;;;;;;;;5115425;28;20332;-93
2020/12/29 11:34:51;;;;;;;27.33;20.33;;;;;;;;;;5115377;28;20175;-91
2020/12/29 11:37:18;;;;;;;38.53;29.27;;;;;;;;;;5115403;28;20184;-91
2020/12/29 11:39:47;;;;;;;26.00;21.23;;;;;;;;;;5115533;28;20170;-92
2020/12/29 11:42:13;;;;;;;32.90;26.73;;;;;;;;;;5115512;28;20278;-91
2020/12/29 11:44:42;;;;;;;29.63;23.10;;;;;;;;;;5115439;28;20569;-92
2020/12/29 11:47:09;;;;;;;33.57;25.87;;;;;;;;;;5116374;28;20170;-92
2020/12/29 11:49:35;;;;;;;28.30;23.20;;;;;;;;;;5115321;28;20264;-92
2020/12/29 11:52:02;;;;;;;29.13;23.37;;;;;;;;;;5116659;28;20186;-92
2020/12/29 11:54:33;;;;;;;26.20;22.50;;;;;;;;;;5114628;28;20173;-92
2020/12/29 11:57:06;;;;;;;24.00;21.40;;;;;;;;;;5115054;28;20200;-91
2020/12/29 11:59:34;;;;;;;28.57;23.40;;;;;;;;;;5114899;28;20598;-90
2020/12/29 12:02:06;;;;;;;16.27;14.23;;;;;;;;;;5116265;28;20268;-89
2020/12/29 12:04:36;;;;;;;19.50;17.40;;;;;;;;;;5115353;28;20197;-89
2020/12/29 12:07:10;;;;;;;24.03;20.67;;;;;;;;;;5115938;28;20173;-90
2020/12/29 12:09:41;;;;;;;19.73;16.23;;;;;;;;;;5114804;28;20216;-90
2020/12/29 12:12:10;;;;;;;20.10;17.00;;;;;;;;;;5114632;28;20213;-90
2020/12/29 12:14:38;;;;;;;22.40;19.07;;;;;;;;;;5114534;28;20188;-90
2020/12/29 12:17:09;;;;;;;20.57;15.30;;;;;;;;;;5114768;28;20201;-90
2020/12/29 12:19:36;;;;;;;22.70;18.27;;;;;;;;;;5114547;28;20173;-90
2020/12/29 12:22:03;;;;;;;22.17;16.47;;;;;;;;;;5114994;28;20197;-90
2020/12/29 12:24:31;;;;;;;24.20;19.20;;;;;;;;;;5114259;28;20571;-90
2020/12/29 12:26:59;;;;;;;24.83;17.97;;;;;;;;;;5114384;28;20177;-90
2020/12/29 12:29:31;;;;;;;21.73;19.10;;;;;;;;;;5114314;28;20177;-92
2020/12/29 12:32:01;;;;;;;27.43;22.70;;;;;;;;;;5114378;28;20190;-91
2020/12/29 12:34:31;;;;;;;30.20;22.53;;;;;;;;;;5114603;28;20191;-92
2020/12/29 12:37:01;;;;;;;29.20;22.50;;;;;;;;;;5114316;28;20264;-91
2020/12/29 12:39:35;;;;;;;22.57;15.83;;;;;;;;;;5114357;28;20550;-91
2020/12/29 12:42:09;;;;;;;24.90;18.93;;;;;;;;;;5114761;28;20700;-92
2020/12/29 12:44:40;;;;;;;28.43;22.13;;;;;;;;;;5114443;28;20279;-92
2020/12/29 12:47:16;;;;;;;27.17;20.57;;;;;;;;;;5114188;28;20218;-91
2020/12/29 12:49:51;;;;;;;23.80;19.67;;;;;;;;;;5114696;28;20259;-92
2020/12/29 12:52:21;;;;;;;30.97;16.03;;;;;;;;;;5113917;28;20191;-91
2020/12/29 12:54:47;;;;;;;27.37;20.70;;;;;;;;;;5114006;28;20651;-92
2020/12/29 12:57:21;;;;;;;35.67;25.80;;;;;;;;;;5113828;28;20196;-91
2020/12/29 12:59:51;;;;;;;28.67;19.23;;;;;;;;;;5113737;28;20226;-92
2020/12/29 13:02:20;;;;;;;24.83;18.83;;;;;;;;;;5115269;28;20201;-88
2020/12/29 13:04:46;;;;;;;38.63;24.90;;;;;;;;;;5113473;28;20545;-89
2020/12/29 13:07:12;;;;;;;20.17;17.00;;;;;;;;;;5113617;28;20193;-90
2020/12/29 13:09:43;;;;;;;25.20;16.30;;;;;;;;;;5113534;28;20668;-90
2020/12/29 13:12:14;;;;;;;33.90;25.40;;;;;;;;;;5113411;28;20217;-89
2020/12/29 13:14:43;;;;;;;41.07;28.30;;;;;;;;;;5113515;28;20526;-90
2020/12/29 13:17:11;;;;;;;19.57;16.00;;;;;;;;;;5114544;28;20221;-90
2020/12/29 13:19:37;;;;;;;39.70;29.13;;;;;;;;;;5113500;28;20636;-89
2020/12/29 13:22:08;;;;;;;43.27;27.10;;;;;;;;;;5113144;28;20200;-90
2020/12/29 13:24:38;;;;;;;37.37;25.60;;;;;;;;;;5113164;28;20239;-90
2020/12/29 13:27:10;;;;;;;45.27;29.50;;;;;;;;;;5114065;28;20169;-89
2020/12/29 13:29:40;;;;;;;25.80;19.57;;;;;;;;;;5113066;28;20170;-90
2020/12/29 13:32:07;;;;;;;21.10;17.23;;;;;;;;;;5113122;28;20195;-89
2020/12/29 13:34:39;;;;;;;23.27;16.63;;;;;;;;;;5113055;28;20259;-91
2020/12/29 13:37:06;;;;;;;35.83;26.83;;;;;;;;;;5113070;28;20525;-89
2020/12/29 13:39:32;;;;;;;34.83;24.10;;;;;;;;;;5114399;28;20542;-90
2020/12/29 13:42:05;;;;;;;30.60;20.90;;;;;;;;;;5113004;28;20192;-90
2020/12/29 13:44:34;;;;;;;26.37;19.50;;;;;;;;;;5113144;28;20191;-90
2020/12/29 13:47:04;;;;;;;42.67;32.13;;;;;;;;;;5114078;28;20230;-90
2020/12/29 13:49:31;;;;;;;45.17;29.93;;;;;;;;;;5112779;28;20173;-89
2020/12/29 13:51:57;;;;;;;46.07;31.47;;;;;;;;;;5112807;28;20193;-89
2020/12/29 13:54:32;;;;;;;31.20;23.33;;;;;;;;;;5112826;28;20188;-91
2020/12/29 13:57:04;;;;;;;48.50;34.83;;;;;;;;;;5113745;28;20222;-90
2020/12/29 13:59:39;;;;;;;35.87;27.43;;;;;;;;;;5112679;28;20174;-91
2020/12/29 14:02:11;;;;;;;47.20;34.30;;;;;;;;;;5112700;28;20202;-91
2020/12/29 14:04:45;;;;;;;46.17;34.07;;;;;;;;;;5113646;28;20245;-91
2020/12/29 14:07:20;;;;;;;49.40;30.53;;;;;;;;;;5113905;28;20172;-92
2020/12/29 14:09:51;;;;;;;19.67;16.17;;;;;;;;;;5112705;28;20227;-91
2020/12/29 14:12:23;;;;;;;35.27;25.37;;;;;;;;;;5112650;28;20214;-91
2020/12/29 14:14:55;;;;;;;42.83;31.63;;;;;;;;;;5112784;28;20640;-91
2020/12/29 14:17:25;;;;;;;44.77;29.97;;;;;;;;;;5112230;28;20291;-91
2020/12/29 14:19:54;;;;;;;41.83;28.97;;;;;;;;;;5112420;28;20259;-91
2020/12/29 14:22:28;;;;;;;27.83;20.70;;;;;;;;;;5113751;28;20697;-91
2020/12/29 14:25:00;;;;;;;41.97;29.17;;;;;;;;;;5113626;28;20667;-91
2020/12/29 14:27:26;;;;;;;37.37;25.97;;;;;;;;;;5112405;28;20179;-92
2020/12/29 14:29:53;;;;;;;34.87;27.90;;;;;;;;;;5112429;28;20547;-92
2020/12/29 14:32:19;;;;;;;29.67;21.40;;;;;;;;;;5113705;28;20698;-91
2020/12/29 14:34:51;;;;;;;24.37;18.60;;;;;;;;;;5112693;28;20314;-91
2020/12/29 14:37:21;;;;;;;25.97;20.37;;;;;;;;;;5112420;28;20181;-91
2020/12/29 14:39:53;;;;;;;36.13;25.20;;;;;;;;;;5112432;28;20186;-91